createdAt,value
2016-04-09T00:00:53.273Z,0
2016-04-09T00:01:40.557Z,0
2016-04-09T00:02:40.576Z,0
2016-04-09T00:03:40.719Z,0
2016-04-09T00:04:40.815Z,0
2016-04-09T00:05:40.599Z,0
2016-04-09T00:06:40.633Z,0
2016-04-09T00:07:40.683Z,0
2016-04-09T00:08:46.967Z,0
2016-04-09T00:09:53.423Z,0
2016-04-09T00:10:59.894Z,0
2016-04-09T00:11:40.772Z,0
2016-04-09T00:13:06.461Z,0
2016-04-09T00:13:47.042Z,0
2016-04-09T00:15:12.045Z,0
2016-04-09T00:15:59.814Z,0
2016-04-09T00:16:40.816Z,0
2016-04-09T00:17:40.803Z,0
2016-04-09T00:18:47.102Z,0
2016-04-09T00:19:53.605Z,0
2016-04-09T00:20:53.608Z,0
2016-04-09T00:21:40.830Z,0
2016-04-09T00:22:40.927Z,0
2016-04-09T00:23:40.882Z,0
2016-04-09T00:24:40.947Z,0
2016-04-09T00:25:40.965Z,0
2016-04-09T00:26:42.343Z,0
2016-04-09T00:27:42.440Z,0
2016-04-09T00:28:40.957Z,0
2016-04-09T00:29:40.960Z,0
2016-04-09T00:30:40.962Z,0
2016-04-09T00:31:53.778Z,0
2016-04-09T00:32:41.015Z,0
2016-04-09T00:33:41.142Z,0
2016-04-09T00:34:41.645Z,0
2016-04-09T00:35:41.164Z,0
2016-04-09T00:36:41.058Z,0
2016-04-09T00:37:53.842Z,0
2016-04-09T00:38:41.703Z,0
2016-04-09T00:40:00.331Z,0
2016-04-09T00:40:44.239Z,0
2016-04-09T00:41:44.211Z,0
2016-04-09T00:42:44.230Z,0
2016-04-09T00:43:56.983Z,0
2016-04-09T00:44:44.267Z,0
2016-04-09T00:45:44.270Z,0
2016-04-09T00:46:44.366Z,0
2016-04-09T00:47:44.931Z,0
2016-04-09T00:48:44.496Z,0
2016-04-09T00:49:44.936Z,0
2016-04-09T00:50:44.346Z,0
2016-04-09T00:51:44.363Z,0
2016-04-09T00:52:44.976Z,0
2016-04-09T00:53:44.634Z,0
2016-04-09T00:54:44.402Z,0
2016-04-09T00:55:44.405Z,0
2016-04-09T00:56:44.642Z,0
2016-04-09T00:57:57.177Z,0
2016-04-09T00:58:44.632Z,0
2016-04-09T00:59:44.588Z,0
2016-04-09T01:00:50.826Z,0
2016-04-09T01:01:44.687Z,0
2016-04-09T01:02:44.534Z,0
2016-04-09T01:03:44.614Z,0
2016-04-09T01:04:50.804Z,0
2016-04-09T01:05:50.870Z,0
2016-04-09T01:06:57.294Z,0
2016-04-09T01:07:57.328Z,0
2016-04-09T01:08:45.002Z,0
2016-04-09T01:10:03.786Z,0
2016-04-09T01:10:44.633Z,0
2016-04-09T01:11:50.902Z,0
2016-04-09T01:12:44.889Z,0
2016-04-09T01:13:44.642Z,0
2016-04-09T01:14:44.956Z,0
2016-04-09T01:15:44.694Z,0
2016-04-09T01:16:57.540Z,0
2016-04-09T01:17:44.714Z,0
2016-04-09T01:18:44.905Z,0
2016-04-09T01:19:57.485Z,0
2016-04-09T01:20:57.567Z,0
2016-04-09T01:21:44.772Z,0
2016-04-09T01:22:44.807Z,0
2016-04-09T01:23:44.794Z,0
2016-04-09T01:24:44.812Z,0
2016-04-09T01:25:44.861Z,0
2016-04-09T01:26:44.832Z,0
2016-04-09T01:27:45.023Z,0
2016-04-09T01:28:51.135Z,0
2016-04-09T01:29:44.918Z,0
2016-04-09T01:30:44.890Z,0
2016-04-09T01:31:57.673Z,0
2016-04-09T01:32:44.942Z,0
2016-04-09T01:34:04.148Z,0
2016-04-09T01:34:44.948Z,0
2016-04-09T01:37:00.147Z,0
2016-04-09T01:38:00.181Z,0
2016-04-09T01:39:00.199Z,0
2016-04-09T01:40:00.232Z,0
2016-04-09T01:41:00.235Z,0
2016-04-09T01:42:00.223Z,0
2016-04-09T01:43:01.662Z,0
2016-04-09T01:44:07.134Z,0
2016-04-09T01:45:00.245Z,0
2016-04-09T01:46:00.295Z,0
2016-04-09T01:47:07.158Z,0
2016-04-09T01:48:00.973Z,0
2016-04-09T01:49:19.523Z,0
2016-04-09T01:50:00.370Z,0
2016-04-09T01:51:19.559Z,0
2016-04-09T01:52:07.265Z,0
2016-04-09T01:53:26.052Z,0
2016-04-09T01:54:00.380Z,0
2016-04-09T01:55:00.414Z,0
2016-04-09T01:56:13.166Z,0
2016-04-09T01:57:00.497Z,0
2016-04-09T01:58:20.280Z,0
2016-04-09T01:59:13.221Z,0
2016-04-09T02:00:31.774Z,0
2016-04-09T02:01:00.586Z,0
2016-04-09T02:02:31.826Z,0
2016-04-09T02:03:07.388Z,0
2016-04-09T02:03:59.782Z,0
2016-04-09T02:05:26.240Z,0
2016-04-09T02:06:10.115Z,0
2016-04-09T02:07:10.180Z,0
2016-04-09T02:08:10.151Z,0
2016-04-09T02:09:22.982Z,0
2016-04-09T02:10:10.141Z,0
2016-04-09T02:11:29.397Z,0
2016-04-09T02:12:10.225Z,0
2016-04-09T02:13:10.868Z,0
2016-04-09T02:14:10.214Z,0
2016-04-09T02:15:10.234Z,0
2016-04-09T02:16:10.267Z,0
2016-04-09T02:17:10.254Z,0
2016-04-09T02:18:10.179Z,0
2016-04-09T02:19:10.275Z,0
2016-04-09T02:20:10.309Z,0
2016-04-09T02:21:23.046Z,0
2016-04-09T02:22:23.095Z,0
2016-04-09T02:23:29.570Z,0
2016-04-09T02:24:10.383Z,0
2016-04-09T02:25:10.386Z,0
2016-04-09T02:26:23.106Z,0
2016-04-09T02:27:23.125Z,0
2016-04-09T02:28:29.614Z,0
2016-04-09T02:29:10.427Z,0
2016-04-09T02:30:36.119Z,0
2016-04-09T02:31:10.463Z,0
2016-04-09T02:32:41.749Z,0
2016-04-09T02:33:17.296Z,0
2016-04-09T02:34:10.471Z,0
2016-04-09T02:35:10.505Z,0
2016-04-09T02:36:10.507Z,0
2016-04-09T02:37:10.635Z,0
2016-04-09T02:38:11.154Z,0
2016-04-09T02:39:23.282Z,0
2016-04-09T02:40:10.566Z,0
2016-04-09T02:41:10.585Z,0
2016-04-09T02:42:11.196Z,0
2016-04-09T02:43:10.606Z,0
2016-04-09T02:44:10.623Z,0
2016-04-09T02:45:10.626Z,0
2016-04-09T02:46:23.395Z,0
2016-04-09T02:47:10.694Z,0
2016-04-09T02:48:36.356Z,0
2016-04-09T02:49:11.325Z,0
2016-04-09T02:50:41.361Z,0
2016-04-09T02:51:23.439Z,0
2016-04-09T02:52:10.739Z,0
2016-04-09T02:53:23.476Z,0
2016-04-09T02:54:10.869Z,0
2016-04-09T02:55:30.015Z,0
2016-04-09T02:56:10.999Z,0
2016-04-09T02:57:42.099Z,0
2016-04-09T02:58:10.817Z,0
2016-04-09T03:00:11.433Z,0
2016-04-09T03:01:11.107Z,0
2016-04-09T03:02:10.844Z,0
2016-04-09T03:03:11.096Z,0
2016-04-09T03:04:10.896Z,0
2016-04-09T03:05:17.196Z,0
2016-04-09T03:06:10.901Z,0
2016-04-09T03:07:23.732Z,0
2016-04-09T03:08:10.938Z,0
2016-04-09T03:09:36.615Z,0
2016-04-09T03:10:10.974Z,0
2016-04-09T03:11:10.993Z,0
2016-04-09T03:12:10.979Z,0
2016-04-09T03:13:17.264Z,0
2016-04-09T03:14:17.314Z,0
2016-04-09T03:15:11.035Z,0
2016-04-09T03:16:11.101Z,0
2016-04-09T03:17:17.353Z,0
2016-04-09T03:18:11.184Z,0
2016-04-09T03:19:11.092Z,0
2016-04-09T03:20:17.376Z,0
2016-04-09T03:21:11.114Z,0
2016-04-09T03:22:17.397Z,0
2016-04-09T03:23:17.447Z,0
2016-04-09T03:24:11.136Z,0
2016-04-09T03:26:17.267Z,0
2016-04-09T03:27:14.255Z,0
2016-04-09T03:28:14.273Z,0
2016-04-09T03:29:20.635Z,0
2016-04-09T03:30:15.716Z,0
2016-04-09T03:31:27.127Z,0
2016-04-09T03:32:27.036Z,0
2016-04-09T03:33:14.365Z,0
2016-04-09T03:34:27.104Z,0
2016-04-09T03:35:15.791Z,0
2016-04-09T03:36:14.389Z,0
2016-04-09T03:37:14.391Z,0
2016-04-09T03:38:14.394Z,0
2016-04-09T03:39:14.413Z,0
2016-04-09T03:40:14.415Z,0
2016-04-09T03:41:14.418Z,0
2016-04-09T03:42:14.435Z,0
2016-04-09T03:43:14.470Z,0
2016-04-09T03:44:14.629Z,0
2016-04-09T03:45:14.506Z,0
2016-04-09T03:46:14.618Z,0
2016-04-09T03:47:14.527Z,0
2016-04-09T03:48:14.451Z,0
2016-04-09T03:49:14.548Z,0
2016-04-09T03:50:14.598Z,0
2016-04-09T03:51:15.976Z,0
2016-04-09T03:52:14.587Z,0
2016-04-09T03:53:33.811Z,0
2016-04-09T03:54:27.345Z,0
2016-04-09T03:55:40.317Z,0
2016-04-09T03:56:27.366Z,0
2016-04-09T03:57:40.416Z,0
2016-04-09T03:58:14.666Z,0
2016-04-09T03:59:40.374Z,0
2016-04-09T04:00:14.687Z,0
2016-04-09T04:01:14.893Z,0
2016-04-09T04:02:14.708Z,4
2016-04-09T04:03:14.727Z,4
2016-04-09T04:04:14.730Z,0
2016-04-09T04:05:15.357Z,0
2016-04-09T04:06:14.782Z,4
2016-04-09T04:07:16.191Z,4
2016-04-09T04:08:14.787Z,4
2016-04-09T04:09:14.837Z,8
2016-04-09T04:10:15.432Z,8
2016-04-09T04:11:21.154Z,8
2016-04-09T04:12:22.516Z,8
2016-04-09T04:13:27.601Z,12
2016-04-09T04:14:29.040Z,12
2016-04-09T04:15:33.934Z,12
2016-04-09T04:16:40.561Z,16
2016-04-09T04:17:50.111Z,20
2016-04-09T04:18:50.145Z,24
2016-04-09T04:19:55.787Z,32
2016-04-09T04:20:58.869Z,36
2016-04-09T04:21:39.730Z,36
2016-04-09T04:23:05.358Z,44
2016-04-09T04:23:39.798Z,52
2016-04-09T04:26:33.322Z,72
2016-04-09T04:26:54.963Z,80
2016-04-09T04:28:51.891Z,100
2016-04-09T04:29:07.500Z,112
2016-04-09T04:30:07.487Z,124
2016-04-09T04:31:07.505Z,140
2016-04-09T04:32:07.352Z,156
2016-04-09T04:33:13.791Z,176
2016-04-09T04:34:08.997Z,196
2016-04-09T04:35:20.281Z,220
2016-04-09T04:36:07.580Z,240
2016-04-09T04:38:42.652Z,296
2016-04-09T04:39:29.732Z,316
2016-04-09T04:40:54.813Z,352
2016-04-09T04:41:39.394Z,376
2016-04-09T04:42:57.912Z,412
2016-04-09T04:43:26.587Z,432
2016-04-09T04:44:26.636Z,468
2016-04-09T04:45:26.654Z,504
2016-04-09T04:46:26.673Z,548
2016-04-09T04:47:39.394Z,600
2016-04-09T04:48:39.600Z,648
2016-04-09T04:51:26.828Z,796
2016-04-09T04:52:49.939Z,848
2016-04-09T04:53:59.504Z,920
2016-04-09T04:55:09.147Z,1000
2016-04-09T04:55:43.416Z,1072
2016-04-09T04:56:43.606Z,1144
2016-04-09T04:57:43.405Z,1220
2016-04-09T04:58:51.174Z,1312
2016-04-09T04:59:43.630Z,1380
2016-04-09T05:04:02.547Z,1752
2016-04-09T05:05:28.177Z,1884
2016-04-09T05:06:08.802Z,1952
2016-04-09T05:08:05.151Z,2144
2016-04-09T05:08:36.919Z,2164
2016-04-09T05:09:17.748Z,2268
2016-04-09T05:10:29.831Z,2372
2016-04-09T05:11:30.334Z,2504
2016-04-09T05:12:17.771Z,2584
2016-04-09T05:13:30.729Z,2712
2016-04-09T05:14:18.589Z,2788
2016-04-09T05:15:43.532Z,2920
2016-04-09T05:16:53.191Z,2988
2016-04-09T05:19:58.777Z,3332
2016-04-09T05:20:39.576Z,3396
2016-04-09T05:22:42.301Z,3584
2016-04-09T05:22:54.864Z,3604
2016-04-09T05:23:54.897Z,3696
2016-04-09T05:24:54.901Z,3788
2016-04-09T05:26:07.762Z,3896
2016-04-09T05:26:54.937Z,3952
2016-04-09T05:27:54.940Z,3996
2016-04-09T05:29:07.661Z,4004
2016-04-09T05:30:07.773Z,4000
2016-04-09T05:32:30.359Z,4044
2016-04-09T05:33:23.594Z,4112
2016-04-09T05:34:37.005Z,4244
2016-04-09T05:35:30.148Z,4368
2016-04-09T05:36:48.885Z,4584
2016-04-09T05:37:33.466Z,4708
2016-04-09T05:38:51.985Z,4928
2016-04-09T05:40:01.519Z,5044
2016-04-09T05:41:32.946Z,5320
2016-04-09T05:42:48.135Z,5504
2016-04-09T05:43:29.560Z,5600
2016-04-09T05:44:16.842Z,5804
2016-04-09T05:45:36.065Z,6284
2016-04-09T05:46:16.878Z,6448
2016-04-09T05:47:16.881Z,6680
2016-04-09T05:48:29.886Z,6880
2016-04-09T05:49:23.183Z,7064
2016-04-09T05:51:26.691Z,7300
2016-04-09T05:53:29.759Z,7512
2016-04-09T05:54:39.450Z,7528
2016-04-09T05:55:49.014Z,7628
2016-04-09T06:00:59.309Z,8272
2016-04-09T06:01:33.687Z,8404
2016-04-09T06:02:33.674Z,8632
2016-04-09T06:03:33.833Z,8728
2016-04-09T06:04:33.710Z,8804
2016-04-09T06:05:46.463Z,8948
2016-04-09T06:06:40.044Z,8968
2016-04-09T06:07:53.000Z,8948
2016-04-09T06:08:46.535Z,8960
2016-04-09T06:11:09.040Z,9212
2016-04-09T06:11:43.417Z,9212
2016-04-09T06:13:46.001Z,9396
2016-04-09T06:14:24.313Z,9460
2016-04-09T06:14:59.784Z,9456
2016-04-09T06:15:58.725Z,9512
2016-04-09T06:17:00.134Z,9764
2016-04-09T06:18:11.449Z,10132
2016-04-09T06:19:11.483Z,10344
2016-04-09T06:19:58.751Z,10468
2016-04-09T06:21:17.972Z,10528
2016-04-09T06:22:11.553Z,10632
2016-04-09T06:22:58.915Z,10748
2016-04-09T06:24:18.058Z,11100
2016-04-09T06:25:11.623Z,11448
2016-04-09T06:26:24.549Z,11892
2016-04-09T06:29:04.384Z,12320
2016-04-09T06:29:39.403Z,12604
2016-04-09T06:30:33.140Z,12892
2016-04-09T06:31:33.142Z,13440
2016-04-09T06:32:33.177Z,13824
2016-04-09T06:33:33.819Z,13548
2016-04-09T06:34:33.214Z,12732
2016-04-09T06:35:33.232Z,12184
2016-04-09T06:36:46.000Z,12672
2016-04-09T06:37:33.378Z,12664
2016-04-09T06:38:58.974Z,13100
2016-04-09T06:39:33.711Z,13384
2016-04-09T06:41:04.635Z,14304
2016-04-09T06:41:33.374Z,14240
2016-04-09T06:42:33.407Z,14528
2016-04-09T06:43:33.425Z,15136
2016-04-09T06:44:33.443Z,15200
2016-04-09T06:45:46.227Z,15104
2016-04-09T06:46:39.745Z,15392
2016-04-09T06:48:30.485Z,15232
2016-04-09T06:49:02.376Z,15232
2016-04-09T06:49:43.082Z,15328
2016-04-09T06:50:43.085Z,15104
2016-04-09T06:51:43.165Z,14656
2016-04-09T06:52:43.293Z,14528
2016-04-09T06:53:43.230Z,15040
2016-04-09T06:54:43.338Z,15392
2016-04-09T06:55:43.355Z,16384
2016-04-09T06:56:56.215Z,16320
2016-04-09T06:57:43.496Z,15904
2016-04-09T06:59:09.313Z,16672
2016-04-09T07:00:12.409Z,17696
2016-04-09T07:01:18.912Z,18176
2016-04-09T07:01:53.274Z,18560
2016-04-09T07:03:18.996Z,17856
2016-04-09T07:03:53.177Z,17536
2016-04-09T07:04:53.404Z,18336
2016-04-09T07:06:06.099Z,20320
2016-04-09T07:06:53.452Z,21856
2016-04-09T07:07:53.351Z,25024
2016-04-09T07:08:53.528Z,24768
2016-04-09T07:09:53.579Z,26688
2016-04-09T07:10:53.569Z,27360
2016-04-09T07:11:53.605Z,26208
2016-04-09T07:12:53.626Z,24800
2016-04-09T07:13:53.660Z,23904
2016-04-09T07:14:53.681Z,23872
2016-04-09T07:15:53.699Z,23360
2016-04-09T07:16:53.734Z,24544
2016-04-09T07:17:53.753Z,24832
2016-04-09T07:19:00.115Z,27360
2016-04-09T07:19:53.822Z,27488
2016-04-09T07:20:53.855Z,27552
2016-04-09T07:21:53.905Z,27392
2016-04-09T07:22:53.907Z,27776
2016-04-09T07:23:53.925Z,27968
2016-04-09T07:24:53.912Z,28032
2016-04-09T07:25:54.212Z,28384
2016-04-09T07:26:53.965Z,28800
2016-04-09T07:27:53.374Z,28640
2016-04-09T07:29:06.752Z,28128
2016-04-09T07:29:54.144Z,28288
2016-04-09T07:31:51.384Z,28960
2016-04-09T07:33:32.856Z,28224
2016-04-09T07:34:07.155Z,28160
2016-04-09T07:35:38.520Z,29024
2016-04-09T07:36:16.801Z,29184
2016-04-09T07:37:16.882Z,28768
2016-04-09T07:38:16.837Z,28416
2016-04-09T07:39:16.918Z,29184
2016-04-09T07:40:16.859Z,29472
2016-04-09T07:41:16.956Z,28896
2016-04-09T07:42:16.958Z,28544
2016-04-09T07:43:17.336Z,29056
2016-04-09T07:44:17.182Z,29536
2016-04-09T07:45:23.310Z,29632
2016-04-09T07:46:17.063Z,29120
2016-04-09T07:47:17.097Z,29024
2016-04-09T07:48:23.381Z,26752
2016-04-09T07:49:23.383Z,18464
2016-04-09T07:50:29.870Z,13756
2016-04-09T07:51:23.436Z,13472
2016-04-09T07:52:17.282Z,13344
2016-04-09T07:53:17.206Z,13344
2016-04-09T07:54:17.240Z,13356
2016-04-09T07:55:17.274Z,13352
2016-04-09T07:56:17.324Z,13340
2016-04-09T07:57:17.311Z,13320
2016-04-09T07:58:30.063Z,13324
2016-04-09T07:59:23.660Z,13324
2016-04-09T08:00:30.132Z,13312
2016-04-09T08:01:17.462Z,13312
2016-04-09T08:03:26.764Z,13292
2016-04-09T08:04:39.738Z,13304
2016-04-09T08:05:33.301Z,13292
2016-04-09T08:06:46.276Z,13236
2016-04-09T08:08:17.590Z,13160
2016-04-09T08:08:49.328Z,13152
2016-04-09T08:09:30.156Z,13152
2016-04-09T08:11:42.820Z,13196
2016-04-09T08:13:36.839Z,13160
2016-04-09T08:13:49.435Z,13160
2016-04-09T08:14:49.453Z,13168
2016-04-09T08:15:49.503Z,13176
2016-04-09T08:17:02.240Z,13180
2016-04-09T08:17:49.523Z,13136
2016-04-09T08:20:18.217Z,12952
2016-04-09T08:21:12.000Z,12916
2016-04-09T08:23:33.600Z,12832
2016-04-09T08:24:07.994Z,12816
2016-04-09T08:25:07.996Z,12856
2016-04-09T08:26:07.999Z,12888
2016-04-09T08:27:08.236Z,12880
2016-04-09T08:28:08.050Z,12856
2016-04-09T08:29:08.194Z,12812
2016-04-09T08:30:08.087Z,12776
2016-04-09T08:31:08.152Z,12668
2016-04-09T08:32:07.983Z,12628
2016-04-09T08:33:08.174Z,12632
2016-04-09T08:34:14.473Z,12620
2016-04-09T08:35:08.226Z,12644
2016-04-09T08:36:20.962Z,12688
2016-04-09T08:37:08.263Z,12712
2016-04-09T08:38:08.296Z,12752
2016-04-09T08:39:14.409Z,12856
2016-04-09T08:40:08.395Z,12916
2016-04-09T08:41:08.351Z,12948
2016-04-09T08:42:08.401Z,13028
2016-04-09T08:43:21.091Z,13100
2016-04-09T08:44:08.375Z,13092
2016-04-09T08:45:27.628Z,12964
2016-04-09T08:46:37.193Z,12852
2016-04-09T08:47:30.758Z,12704
2016-04-09T08:49:11.686Z,12576
2016-04-09T08:50:11.610Z,12572
2016-04-09T08:51:11.644Z,12608
2016-04-09T08:52:11.647Z,12632
2016-04-09T08:53:11.712Z,12640
2016-04-09T08:54:11.667Z,12572
2016-04-09T08:55:11.733Z,12512
2016-04-09T08:56:11.720Z,12424
2016-04-09T08:57:11.753Z,12384
2016-04-09T08:58:11.897Z,12356
2016-04-09T08:59:24.556Z,12168
2016-04-09T09:00:24.777Z,12036
2016-04-09T09:01:11.842Z,12036
2016-04-09T09:02:11.924Z,11980
2016-04-09T09:03:11.910Z,11828
2016-04-09T09:04:12.460Z,11696
2016-04-09T09:05:11.900Z,11604
2016-04-09T09:06:11.982Z,11520
2016-04-09T09:07:11.984Z,11400
2016-04-09T09:08:12.034Z,11364
2016-04-09T09:09:24.755Z,11360
2016-04-09T09:10:12.055Z,11364
2016-04-09T09:11:12.074Z,11156
2016-04-09T09:12:11.327Z,11092
2016-04-09T09:13:12.610Z,11164
2016-04-09T09:14:12.129Z,11212
2016-04-09T09:15:12.257Z,11228
2016-04-09T09:16:12.149Z,11140
2016-04-09T09:17:12.199Z,10976
2016-04-09T09:18:12.201Z,10904
2016-04-09T09:19:12.220Z,10816
2016-04-09T09:20:12.254Z,10852
2016-04-09T09:21:12.272Z,10828
2016-04-09T09:22:12.353Z,10720
2016-04-09T09:23:12.309Z,10588
2016-04-09T09:24:12.327Z,10492
2016-04-09T09:25:12.376Z,10400
2016-04-09T09:26:12.395Z,10388
2016-04-09T09:27:25.148Z,10440
2016-04-09T09:28:18.697Z,10528
2016-04-09T09:30:21.812Z,10228
2016-04-09T09:31:15.581Z,10316
2016-04-09T09:32:15.567Z,10548
2016-04-09T09:33:15.726Z,10652
2016-04-09T09:34:15.761Z,10628
2016-04-09T09:35:15.700Z,10472
2016-04-09T09:36:15.672Z,10296
2016-04-09T09:37:15.737Z,10244
2016-04-09T09:38:15.708Z,10280
2016-04-09T09:39:15.742Z,10056
2016-04-09T09:40:15.777Z,9536
2016-04-09T09:41:15.857Z,9352
2016-04-09T09:42:16.235Z,9356
2016-04-09T09:43:15.832Z,9520
2016-04-09T09:44:28.584Z,10852
2016-04-09T09:45:15.868Z,11456
2016-04-09T09:46:28.761Z,11632
2016-04-09T09:47:15.921Z,11380
2016-04-09T09:48:16.016Z,11156
2016-04-09T09:49:15.976Z,10888
2016-04-09T09:50:16.108Z,10548
2016-04-09T09:51:16.545Z,10128
2016-04-09T09:52:16.056Z,9476
2016-04-09T09:53:16.249Z,8592
2016-04-09T09:54:16.205Z,8424
2016-04-09T09:55:16.193Z,8836
2016-04-09T09:56:16.102Z,9168
2016-04-09T09:57:16.183Z,10256
2016-04-09T09:58:16.154Z,11580
2016-04-09T09:59:16.266Z,11700
2016-04-09T10:00:16.206Z,11476
2016-04-09T10:01:16.053Z,11168
2016-04-09T10:02:16.259Z,10836
2016-04-09T10:03:16.106Z,10768
2016-04-09T10:04:16.390Z,10732
2016-04-09T10:05:16.314Z,11180
2016-04-09T10:06:16.442Z,11612
2016-04-09T10:07:16.554Z,11836
2016-04-09T10:08:16.448Z,11804
2016-04-09T10:09:16.388Z,11540
2016-04-09T10:10:16.485Z,11064
2016-04-09T10:11:16.488Z,10592
2016-04-09T10:12:16.458Z,10524
2016-04-09T10:13:16.476Z,10044
2016-04-09T10:14:29.229Z,10388
2016-04-09T10:15:16.514Z,10640
2016-04-09T10:16:35.829Z,11744
2016-04-09T10:17:16.581Z,12036
2016-04-09T10:18:16.913Z,11636
2016-04-09T10:19:16.540Z,11460
2016-04-09T10:20:16.621Z,11388
2016-04-09T10:21:29.405Z,10656
2016-04-09T10:22:16.673Z,10260
2016-04-09T10:23:16.738Z,9912
2016-04-09T10:24:16.725Z,9684
2016-04-09T10:25:29.478Z,10020
2016-04-09T10:26:16.793Z,10180
2016-04-09T10:27:16.796Z,10448
2016-04-09T10:28:16.846Z,10904
2016-04-09T10:29:16.832Z,11232
2016-04-09T10:30:16.881Z,11972
2016-04-09T10:31:29.994Z,12472
2016-04-09T10:32:16.919Z,12644
2016-04-09T10:33:42.625Z,13008
2016-04-09T10:34:17.158Z,12972
2016-04-09T10:35:42.677Z,12432
2016-04-09T10:36:52.523Z,12216
2016-04-09T10:37:26.714Z,11504
2016-04-09T10:38:26.717Z,11156
2016-04-09T10:39:26.750Z,11056
2016-04-09T10:40:26.752Z,11096
2016-04-09T10:41:26.787Z,10944
2016-04-09T10:42:33.071Z,10636
2016-04-09T10:43:26.839Z,10376
2016-04-09T10:44:26.858Z,10148
2016-04-09T10:45:26.860Z,9944
2016-04-09T10:46:26.910Z,9844
2016-04-09T10:47:33.287Z,9972
2016-04-09T10:48:26.946Z,10412
2016-04-09T10:49:27.043Z,11488
2016-04-09T10:50:26.983Z,12404
2016-04-09T10:51:39.767Z,12828
2016-04-09T10:52:27.035Z,12928
2016-04-09T10:53:27.084Z,13336
2016-04-09T10:54:27.071Z,13924
2016-04-09T10:55:27.934Z,14612
2016-04-09T10:56:27.140Z,14008
2016-04-09T10:57:27.143Z,13236
2016-04-09T10:58:27.270Z,13536
2016-04-09T10:59:27.178Z,13836
2016-04-09T11:00:27.228Z,13004
2016-04-09T11:01:27.247Z,12460
2016-04-09T11:02:27.640Z,12496
2016-04-09T11:03:27.909Z,12512
2016-04-09T11:04:40.037Z,12804
2016-04-09T11:05:29.367Z,13224
2016-04-09T11:06:46.541Z,13784
2016-04-09T11:07:27.372Z,13868
2016-04-09T11:08:27.406Z,13576
2016-04-09T11:09:27.472Z,13568
2016-04-09T11:10:27.458Z,13300
2016-04-09T11:11:27.587Z,12636
2016-04-09T11:12:27.494Z,11840
2016-04-09T11:13:40.294Z,11124
2016-04-09T11:14:27.547Z,10836
2016-04-09T11:15:46.785Z,10812
2016-04-09T11:16:27.803Z,10816
2016-04-09T11:17:27.633Z,10664
2016-04-09T11:18:27.761Z,10288
2016-04-09T11:19:27.091Z,10540
2016-04-09T11:20:27.704Z,10788
2016-04-09T11:21:27.722Z,10796
2016-04-09T11:22:27.819Z,10808
2016-04-09T11:23:27.743Z,10776
2016-04-09T11:24:27.824Z,10768
2016-04-09T11:25:27.812Z,10800
2016-04-09T11:26:27.846Z,10752
2016-04-09T11:27:29.285Z,10152
2016-04-09T11:28:27.882Z,10236
2016-04-09T11:29:27.963Z,10384
2016-04-09T11:30:29.340Z,10836
2016-04-09T11:31:28.015Z,11072
2016-04-09T11:32:27.987Z,11480
2016-04-09T11:33:28.036Z,11596
2016-04-09T11:34:28.164Z,11308
2016-04-09T11:35:28.181Z,10768
2016-04-09T11:36:29.498Z,10364
2016-04-09T11:37:40.922Z,10428
2016-04-09T11:38:47.314Z,10444
2016-04-09T11:39:47.333Z,10576
2016-04-09T11:40:28.180Z,10800
2016-04-09T11:41:28.197Z,10972
2016-04-09T11:42:28.435Z,10804
2016-04-09T11:43:28.235Z,11248
2016-04-09T11:44:28.363Z,11176
2016-04-09T11:45:28.271Z,11052
2016-04-09T11:46:28.305Z,10952
2016-04-09T11:47:28.324Z,10920
2016-04-09T11:48:28.388Z,10928
2016-04-09T11:49:28.485Z,10844
2016-04-09T11:50:28.410Z,10856
2016-04-09T11:51:41.146Z,10784
2016-04-09T11:52:28.462Z,10824
2016-04-09T11:53:28.449Z,11280
2016-04-09T11:54:28.482Z,12036
2016-04-09T11:55:28.501Z,12696
2016-04-09T11:56:28.535Z,13312
2016-04-09T11:57:29.006Z,14244
2016-04-09T11:58:28.571Z,15412
2016-04-09T11:59:28.637Z,15936
2016-04-09T12:00:41.359Z,15212
2016-04-09T12:01:28.642Z,14896
2016-04-09T12:02:47.911Z,14548
2016-04-09T12:03:34.976Z,14100
2016-04-09T12:04:47.962Z,12812
2016-04-09T12:05:28.731Z,12552
2016-04-09T12:07:20.111Z,11788
2016-04-09T12:07:32.689Z,11572
2016-04-09T12:08:32.802Z,11184
2016-04-09T12:09:32.742Z,10804
2016-04-09T12:10:32.744Z,10216
2016-04-09T12:11:32.810Z,9740
2016-04-09T12:12:32.844Z,9368
2016-04-09T12:13:32.830Z,9412
2016-04-09T12:14:32.896Z,10348
2016-04-09T12:15:32.883Z,11348
2016-04-09T12:16:32.917Z,12348
2016-04-09T12:17:33.138Z,12860
2016-04-09T12:18:32.954Z,13196
2016-04-09T12:19:34.394Z,13344
2016-04-09T12:20:33.005Z,13360
2016-04-09T12:21:33.087Z,13492
2016-04-09T12:22:33.058Z,13340
2016-04-09T12:23:33.154Z,13336
2016-04-09T12:24:33.079Z,13384
2016-04-09T12:25:39.394Z,13056
2016-04-09T12:26:39.428Z,12444
2016-04-09T12:27:45.915Z,11692
2016-04-09T12:28:34.606Z,11312
2016-04-09T12:31:01.989Z,10872
2016-04-09T12:31:36.332Z,10964
2016-04-09T12:33:02.041Z,11484
2016-04-09T12:33:45.932Z,11640
2016-04-09T12:34:45.310Z,12076
2016-04-09T12:35:45.359Z,12284
2016-04-09T12:37:11.676Z,11848
2016-04-09T12:37:46.020Z,11336
2016-04-09T12:39:17.339Z,10456
2016-04-09T12:39:46.073Z,10348
2016-04-09T12:40:46.123Z,10348
2016-04-09T12:41:46.234Z,10584
2016-04-09T12:42:46.158Z,10844
2016-04-09T12:43:47.614Z,11016
2016-04-09T12:44:47.617Z,11008
2016-04-09T12:46:05.436Z,10408
2016-04-09T12:46:46.233Z,10732
2016-04-09T12:48:11.941Z,11500
2016-04-09T12:48:59.035Z,12212
2016-04-09T12:49:46.365Z,12764
2016-04-09T12:50:59.274Z,12848
2016-04-09T12:51:46.371Z,12496
2016-04-09T12:52:46.405Z,11836
2016-04-09T12:53:46.424Z,11224
2016-04-09T12:54:59.177Z,10632
2016-04-09T12:55:46.460Z,10100
2016-04-09T12:56:46.493Z,9572
2016-04-09T12:57:46.605Z,9656
2016-04-09T12:58:46.546Z,9796
2016-04-09T12:59:46.596Z,10332
2016-04-09T13:00:47.207Z,11052
2016-04-09T13:01:46.632Z,11772
2016-04-09T13:02:59.385Z,12328
2016-04-09T13:03:59.418Z,12904
2016-04-09T13:05:12.393Z,13208
2016-04-09T13:07:27.586Z,12424
2016-04-09T13:08:37.151Z,12072
2016-04-09T13:09:11.544Z,11544
2016-04-09T13:10:11.515Z,10948
2016-04-09T13:11:11.565Z,10172
2016-04-09T13:12:24.287Z,9376
2016-04-09T13:13:11.603Z,9100
2016-04-09T13:14:11.636Z,8960
2016-04-09T13:15:11.733Z,8596
2016-04-09T13:16:11.688Z,8512
2016-04-09T13:17:11.738Z,8688
2016-04-09T13:18:24.474Z,9060
2016-04-09T13:19:11.758Z,9436
2016-04-09T13:20:30.980Z,10012
2016-04-09T13:21:11.780Z,10252
2016-04-09T13:22:37.548Z,10700
2016-04-09T13:23:21.535Z,10908
2016-04-09T13:24:21.522Z,11248
2016-04-09T13:25:21.525Z,11468
2016-04-09T13:26:21.715Z,11552
2016-04-09T13:27:21.530Z,11524
2016-04-09T13:28:21.688Z,11656
2016-04-09T13:29:21.599Z,11584
2016-04-09T13:30:22.523Z,11520
2016-04-09T13:31:21.682Z,11668
2016-04-09T13:32:21.699Z,11900
2016-04-09T13:33:34.437Z,12608
2016-04-09T13:34:21.737Z,13108
2016-04-09T13:36:18.868Z,13128
2016-04-09T13:36:31.618Z,13108
2016-04-09T13:37:31.744Z,12664
2016-04-09T13:38:31.559Z,12584
2016-04-09T13:39:31.797Z,12220
2016-04-09T13:40:31.659Z,12068
2016-04-09T13:41:32.348Z,11852
2016-04-09T13:42:31.601Z,11792
2016-04-09T13:43:31.729Z,11652
2016-04-09T13:44:31.669Z,11172
2016-04-09T13:45:31.673Z,10676
2016-04-09T13:46:31.816Z,10292
2016-04-09T13:47:37.990Z,10004
2016-04-09T13:48:31.759Z,9820
2016-04-09T13:49:31.792Z,9672
2016-04-09T13:50:31.827Z,9832
2016-04-09T13:51:31.844Z,10084
2016-04-09T13:52:31.878Z,10008
2016-04-09T13:53:31.881Z,9496
2016-04-09T13:54:31.931Z,9012
2016-04-09T13:55:44.668Z,8660
2016-04-09T13:56:38.233Z,8580
2016-04-09T13:57:51.220Z,8672
2016-04-09T13:58:44.723Z,8856
2016-04-09T13:59:57.741Z,8748
2016-04-09T14:00:51.259Z,8528
2016-04-09T14:03:12.987Z,7764
2016-04-09T14:03:47.346Z,7560
2016-04-09T14:05:49.929Z,6956
2016-04-09T14:06:21.713Z,6924
2016-04-09T14:07:02.637Z,6760
2016-04-09T14:08:59.531Z,6668
2016-04-09T14:09:12.112Z,6648
2016-04-09T14:10:31.442Z,6648
2016-04-09T14:11:12.351Z,6676
2016-04-09T14:13:03.528Z,6728